Time;durP1;ratioP1;P1;durP2;ratioP2;P2;SDS_P1;SDS_P2;PMS_P1;PMS_P2;Temp;Humidity;BMP_temperature;BMP_pressure;BME280_temperature;BME280_humidity;BME280_pressure;Samples;Min_cycle;Max_cycle;Signal;HPM_P1;HPM_P2
2024/02/22 00:01:11;;;;;;;26.95;4.50;;;12.60;83.70;;;;;;5030529;28;20144;-49
2024/02/22 00:03:37;;;;;;;18.83;3.63;;;12.60;84.10;;;;;;5030386;28;20064;-49
2024/02/22 00:06:05;;;;;;;13.35;3.58;;;12.60;84.10;;;;;;5046849;28;20033;-49
2024/02/22 00:08:30;;;;;;;10.18;3.42;;;12.60;84.00;;;;;;5046704;28;20056;-49
2024/02/22 00:10:57;;;;;;;11.27;3.78;;;12.60;84.00;;;;;;5030256;28;20472;-49
2024/02/22 00:13:23;;;;;;;15.95;3.90;;;12.50;83.70;;;;;;5048010;28;20075;-49
2024/02/22 00:15:49;;;;;;;12.75;3.15;;;12.50;84.30;;;;;;5046665;28;20026;-49
2024/02/22 00:18:15;;;;;;;12.68;4.05;;;12.50;84.10;;;;;;5046527;28;20083;-49
2024/02/22 00:20:40;;;;;;;14.93;3.53;;;12.50;84.10;;;;;;5047819;28;20081;-49
2024/02/22 00:23:06;;;;;;;16.30;3.45;;;12.50;84.10;;;;;;5046371;28;20037;-49
2024/02/22 00:25:32;;;;;;;10.82;3.58;;;12.50;84.10;;;;;;5046660;28;20091;-49
2024/02/22 00:27:58;;;;;;;10.25;2.67;;;12.50;84.40;;;;;;5046372;28;20060;-49
2024/02/22 00:30:25;;;;;;;8.10;2.90;;;12.50;84.20;;;;;;5030162;28;20041;-49
2024/02/22 00:32:50;;;;;;;12.85;3.10;;;12.50;84.40;;;;;;5046492;28;20067;-49
2024/02/22 00:35:16;;;;;;;11.02;2.83;;;12.50;84.40;;;;;;5047524;28;20029;-49
2024/02/22 00:37:42;;;;;;;10.90;2.80;;;12.40;84.00;;;;;;5047209;28;20040;-49
2024/02/22 00:40:14;;;;;;;13.43;3.60;;;12.50;84.30;;;;;;5013368;28;20416;-49
2024/02/22 00:42:42;;;;;;;19.95;3.33;;;12.40;84.40;;;;;;5046486;28;20048;-49
2024/02/22 00:45:09;;;;;;;12.07;3.35;;;12.40;84.40;;;;;;5046754;28;20021;-49
2024/02/22 00:47:35;;;;;;;13.90;3.60;;;12.40;84.50;;;;;;5046480;28;20038;-49
2024/02/22 00:50:00;;;;;;;8.55;2.88;;;12.40;84.90;;;;;;5046783;28;20092;-49
2024/02/22 00:52:26;;;;;;;10.05;3.08;;;12.40;85.10;;;;;;5046089;28;20034;-49
2024/02/22 00:54:51;;;;;;;13.90;3.08;;;12.40;85.00;;;;;;5046541;28;20022;-49
2024/02/22 00:57:17;;;;;;;8.52;3.20;;;12.40;84.60;;;;;;5047984;28;20036;-49
2024/02/22 00:59:42;;;;;;;8.68;3.25;;;12.40;84.70;;;;;;5029351;28;20119;-49
2024/02/22 01:02:08;;;;;;;7.78;2.60;;;12.40;84.80;;;;;;5045660;28;20385;-49
2024/02/22 01:04:34;;;;;;;11.80;2.75;;;12.40;84.80;;;;;;5044857;28;20368;-49
2024/02/22 01:06:59;;;;;;;5.95;2.60;;;12.40;84.80;;;;;;5045791;28;20029;-49
2024/02/22 01:09:25;;;;;;;8.05;2.63;;;12.30;85.00;;;;;;5046806;28;20029;-49
2024/02/22 01:11:51;;;;;;;12.15;2.63;;;12.30;84.70;;;;;;5029012;28;20055;-49
2024/02/22 01:14:16;;;;;;;9.13;2.80;;;12.40;84.80;;;;;;5029167;28;20152;-49
2024/02/22 01:16:45;;;;;;;7.95;2.63;;;12.30;84.70;;;;;;5045477;28;20385;-49
2024/02/22 01:19:11;;;;;;;7.03;2.50;;;12.30;84.40;;;;;;5046776;28;20035;-49
2024/02/22 01:21:36;;;;;;;6.90;2.58;;;12.30;84.50;;;;;;5029052;28;20057;-49
2024/02/22 01:24:03;;;;;;;7.45;2.17;;;12.30;85.00;;;;;;5045437;28;20388;-49
2024/02/22 01:26:29;;;;;;;8.05;2.30;;;12.30;84.60;;;;;;5046677;28;20029;-49
2024/02/22 01:28:54;;;;;;;4.75;2.75;;;12.30;84.60;;;;;;5028259;28;20036;-49
2024/02/22 01:31:20;;;;;;;5.40;2.40;;;12.30;84.50;;;;;;5027902;28;20043;-49
2024/02/22 01:33:46;;;;;;;13.38;2.95;;;12.30;84.80;;;;;;5044252;28;20034;-49
2024/02/22 01:36:12;;;;;;;8.57;2.55;;;12.30;84.50;;;;;;5046435;28;20029;-49
2024/02/22 01:38:37;;;;;;;7.22;2.40;;;12.30;84.80;;;;;;5043907;28;20033;-49
2024/02/22 01:41:03;;;;;;;9.05;2.05;;;12.20;84.80;;;;;;5045259;28;20025;-49
2024/02/22 01:43:29;;;;;;;5.10;2.17;;;12.20;84.90;;;;;;5046511;28;20029;-49
2024/02/22 01:45:55;;;;;;;5.95;2.38;;;12.20;84.30;;;;;;5045533;28;20060;-49
2024/02/22 01:48:21;;;;;;;6.13;2.63;;;12.20;84.60;;;;;;5045225;28;20033;-49
2024/02/22 01:50:52;;;;;;;5.13;2.00;;;12.20;85.00;;;;;;5028887;28;20036;-49
2024/02/22 01:53:18;;;;;;;5.82;2.55;;;12.20;85.00;;;;;;5045039;28;20026;-49
2024/02/22 01:55:43;;;;;;;4.47;2.17;;;12.20;84.40;;;;;;5012006;28;20030;-49
2024/02/22 01:58:09;;;;;;;4.38;2.13;;;12.20;84.60;;;;;;5044100;28;20116;-49
2024/02/22 02:00:34;;;;;;;5.15;2.15;;;12.20;85.00;;;;;;5028299;28;20125;-49
2024/02/22 02:03:00;;;;;;;7.20;2.55;;;12.20;84.50;;;;;;5028444;28;20034;-49
2024/02/22 02:05:26;;;;;;;6.45;2.60;;;12.20;84.40;;;;;;5044988;28;20025;-49
2024/02/22 02:07:51;;;;;;;4.68;2.30;;;12.20;84.70;;;;;;5012078;28;20033;-49
2024/02/22 02:10:17;;;;;;;11.27;2.42;;;12.10;84.90;;;;;;5044973;28;20022;-49
2024/02/22 02:12:42;;;;;;;8.52;2.63;;;12.20;85.30;;;;;;5028544;28;20053;-49
2024/02/22 02:15:08;;;;;;;10.77;2.28;;;12.10;85.10;;;;;;5044974;28;20060;-49
2024/02/22 02:17:34;;;;;;;21.48;2.40;;;12.10;84.80;;;;;;5032282;28;20033;-49
2024/02/22 02:20:04;;;;;;;11.45;1.90;;;12.10;85.00;;;;;;5048864;28;20101;-49
2024/02/22 02:23:00;;;;;;;6.78;2.15;;;12.10;84.70;;;;;;5032767;28;20030;-49
2024/02/22 02:25:28;;;;;;;6.40;2.13;;;12.10;84.80;;;;;;5048703;28;20025;-49
2024/02/22 02:27:53;;;;;;;6.43;2.15;;;12.10;85.40;;;;;;5016394;28;20068;-49
2024/02/22 02:30:19;;;;;;;5.65;2.13;;;12.10;85.50;;;;;;5032295;28;20037;-49
2024/02/22 02:32:45;;;;;;;7.18;1.77;;;12.10;85.40;;;;;;5050055;28;20061;-49
2024/02/22 02:35:10;;;;;;;17.00;2.33;;;12.10;85.50;;;;;;5048579;28;20392;-49
2024/02/22 02:37:36;;;;;;;7.20;2.25;;;12.10;85.60;;;;;;5031855;28;20056;-49
2024/02/22 02:40:02;;;;;;;5.70;1.92;;;12.10;85.70;;;;;;5049575;28;20036;-49
2024/02/22 02:42:27;;;;;;;5.88;2.03;;;12.10;85.80;;;;;;5048486;28;20033;-49
2024/02/22 02:44:53;;;;;;;16.92;2.22;;;12.10;85.80;;;;;;5048332;28;20025;-49
2024/02/22 02:47:18;;;;;;;10.27;2.20;;;12.10;85.70;;;;;;5049662;28;20037;-49
2024/02/22 02:49:44;;;;;;;4.65;2.13;;;12.10;85.80;;;;;;5048592;28;20048;-49
2024/02/22 02:52:10;;;;;;;5.60;1.70;;;12.10;85.80;;;;;;5048187;28;20044;-49
2024/02/22 02:54:35;;;;;;;3.28;1.40;;;12.10;86.20;;;;;;5048071;28;20041;-50
2024/02/22 02:57:01;;;;;;;4.47;1.70;;;12.10;86.10;;;;;;5047958;28;20051;-49
2024/02/22 02:59:26;;;;;;;3.47;1.75;;;12.10;86.20;;;;;;5048042;28;20033;-49
2024/02/22 03:01:52;;;;;;;4.80;1.75;;;12.10;86.30;;;;;;5048032;28;20029;-49
2024/02/22 03:04:18;;;;;;;3.80;1.75;;;12.10;86.40;;;;;;5031350;28;20049;-49
2024/02/22 03:06:44;;;;;;;6.07;1.30;;;12.10;86.10;;;;;;5014955;28;20033;-49
2024/02/22 03:09:10;;;;;;;4.55;1.92;;;12.10;86.40;;;;;;5047919;28;20031;-49
2024/02/22 03:11:35;;;;;;;5.95;1.80;;;12.10;86.40;;;;;;5049045;28;20041;-49
2024/02/22 03:14:01;;;;;;;4.07;1.88;;;12.10;86.70;;;;;;5049169;28;20021;-49
2024/02/22 03:16:27;;;;;;;2.60;1.92;;;12.10;86.80;;;;;;5047793;28;20024;-49
2024/02/22 03:18:53;;;;;;;5.43;1.88;;;12.10;87.30;;;;;;5031319;28;20021;-49
2024/02/22 03:21:20;;;;;;;4.45;1.73;;;12.10;87.40;;;;;;5047466;28;20067;-49
2024/02/22 03:23:46;;;;;;;4.57;1.77;;;12.10;87.20;;;;;;5047751;28;20029;-49
2024/02/22 03:26:11;;;;;;;7.10;1.80;;;12.10;87.10;;;;;;5047705;28;20053;-49
2024/02/22 03:28:37;;;;;;;3.88;1.58;;;12.10;87.30;;;;;;5030079;28;20071;-49
2024/02/22 03:31:03;;;;;;;7.80;1.50;;;12.10;87.20;;;;;;5031108;28;20085;-50
2024/02/22 03:33:28;;;;;;;4.38;1.75;;;12.00;87.50;;;;;;5030974;28;20391;-49
2024/02/22 03:35:55;;;;;;;5.15;1.80;;;12.10;88.10;;;;;;5048578;28;20036;-49
2024/02/22 03:38:21;;;;;;;2.65;1.48;;;12.00;88.30;;;;;;5047340;28;20037;-49
2024/02/22 03:40:46;;;;;;;3.70;1.83;;;12.10;88.30;;;;;;5030866;28;20025;-49
2024/02/22 03:43:13;;;;;;;3.90;1.77;;;12.10;88.60;;;;;;5048592;28;20076;-49
2024/02/22 03:45:39;;;;;;;2.47;1.52;;;12.00;88.70;;;;;;5047280;28;20081;-49
2024/02/22 03:48:05;;;;;;;4.53;1.70;;;12.10;88.90;;;;;;5047211;28;20038;-49
2024/02/22 03:50:31;;;;;;;3.45;2.05;;;12.00;88.80;;;;;;5048356;28;20112;-49
2024/02/22 03:52:56;;;;;;;5.03;1.88;;;12.00;89.10;;;;;;5047041;28;20036;-49
2024/02/22 03:55:22;;;;;;;6.60;1.80;;;12.00;89.70;;;;;;5046998;28;20041;-49
2024/02/22 03:57:47;;;;;;;4.72;1.90;;;12.00;90.00;;;;;;5046960;28;20108;-49
2024/02/22 04:00:15;;;;;;;2.45;1.40;;;12.00;89.80;;;;;;5047968;28;20021;-49
2024/02/22 04:02:43;;;;;;;6.30;1.60;;;12.00;89.50;;;;;;5046796;28;20093;-49
2024/02/22 04:05:09;;;;;;;4.35;1.95;;;12.00;90.00;;;;;;5046801;28;20028;-49
2024/02/22 04:07:35;;;;;;;4.35;1.50;;;12.00;90.00;;;;;;5046586;28;20025;-49
2024/02/22 04:10:01;;;;;;;2.85;1.40;;;11.90;90.00;;;;;;5030266;28;20113;-49
2024/02/22 04:12:27;;;;;;;2.38;1.80;;;12.00;90.10;;;;;;5046583;28;20100;-49
2024/02/22 04:14:52;;;;;;;5.47;1.60;;;11.90;90.40;;;;;;5046590;28;20032;-49
2024/02/22 04:17:18;;;;;;;6.63;1.90;;;11.90;90.40;;;;;;5047837;28;20030;-49
2024/02/22 04:19:44;;;;;;;3.17;1.65;;;11.90;90.20;;;;;;5029937;28;20025;-49
2024/02/22 04:22:09;;;;;;;3.50;1.48;;;11.90;90.20;;;;;;5047748;28;20033;-49
2024/02/22 04:24:35;;;;;;;2.35;1.40;;;11.90;90.30;;;;;;5047712;28;20025;-49
2024/02/22 04:27:00;;;;;;;3.63;1.50;;;11.90;90.40;;;;;;5047883;28;20041;-49
2024/02/22 04:29:26;;;;;;;2.17;1.50;;;11.90;90.50;;;;;;5029865;28;20048;-49
2024/02/22 04:31:52;;;;;;;2.30;1.48;;;11.90;90.40;;;;;;5047606;28;20055;-49
2024/02/22 04:34:17;;;;;;;6.85;1.63;;;11.80;90.50;;;;;;5029928;28;20056;-49
2024/02/22 04:36:43;;;;;;;3.03;1.63;;;11.80;90.50;;;;;;5029419;28;20116;-49
2024/02/22 04:39:12;;;;;;;2.08;1.40;;;11.80;90.70;;;;;;5047226;28;20014;-49
2024/02/22 04:41:37;;;;;;;2.30;1.50;;;11.80;90.70;;;;;;5030279;28;20033;-49
2024/02/22 04:44:03;;;;;;;2.35;1.65;;;11.80;90.80;;;;;;5046077;28;20022;-49
2024/02/22 04:46:29;;;;;;;5.53;1.60;;;11.80;90.90;;;;;;5045914;28;20025;-49
2024/02/22 04:48:57;;;;;;;4.43;1.50;;;11.80;90.90;;;;;;5046097;28;20104;-49
2024/02/22 04:51:23;;;;;;;3.00;1.50;;;11.80;90.90;;;;;;5046020;28;20029;-48
2024/02/22 04:53:48;;;;;;;2.72;1.27;;;11.80;91.00;;;;;;5047287;28;20060;-49
2024/02/22 04:56:14;;;;;;;4.13;1.70;;;11.80;91.20;;;;;;5045846;28;20036;-49
2024/02/22 04:58:39;;;;;;;2.28;1.50;;;11.80;91.20;;;;;;5045642;28;20037;-49
2024/02/22 05:01:05;;;;;;;2.90;1.83;;;11.70;91.30;;;;;;5029299;28;20029;-49
2024/02/22 05:03:31;;;;;;;5.28;1.85;;;11.80;91.30;;;;;;5045629;28;20038;-49
2024/02/22 05:05:56;;;;;;;5.93;1.80;;;11.70;91.20;;;;;;5046842;28;20030;-48
2024/02/22 05:08:25;;;;;;;2.53;1.52;;;11.70;91.30;;;;;;5046698;28;20029;-49
2024/02/22 05:10:50;;;;;;;1.95;1.58;;;11.70;91.40;;;;;;5029708;28;20029;-49
2024/02/22 05:13:16;;;;;;;3.58;1.70;;;11.80;91.50;;;;;;5029045;28;20079;-49
2024/02/22 05:15:42;;;;;;;2.90;1.88;;;11.70;91.70;;;;;;5046780;28;20026;-49
2024/02/22 05:18:07;;;;;;;3.20;1.67;;;11.70;91.70;;;;;;5045551;28;20053;-49
2024/02/22 05:20:34;;;;;;;2.78;1.58;;;11.70;91.80;;;;;;5045381;28;20026;-49
2024/02/22 05:23:00;;;;;;;2.58;1.60;;;11.70;91.70;;;;;;5046765;28;20079;-49
2024/02/22 05:25:25;;;;;;;3.58;1.88;;;11.70;91.70;;;;;;5045487;28;20108;-49
2024/02/22 05:27:51;;;;;;;3.25;1.65;;;11.70;91.70;;;;;;5045289;28;20048;-49
2024/02/22 05:30:17;;;;;;;2.95;1.50;;;11.70;91.70;;;;;;5012283;28;20116;-49
2024/02/22 05:32:42;;;;;;;2.63;1.70;;;11.70;91.80;;;;;;5045344;28;20108;-49
2024/02/22 05:35:08;;;;;;;1.98;1.50;;;11.70;91.90;;;;;;5046409;28;20028;-49
2024/02/22 05:37:34;;;;;;;2.47;1.60;;;11.70;91.90;;;;;;5045102;28;20030;-49
2024/02/22 05:40:00;;;;;;;4.70;1.83;;;11.70;92.00;;;;;;5028822;28;20104;-49
2024/02/22 05:42:25;;;;;;;2.80;1.73;;;11.70;92.10;;;;;;5046233;28;20093;-49
2024/02/22 05:44:51;;;;;;;4.70;1.75;;;11.70;92.30;;;;;;5046329;28;20040;-49
2024/02/22 05:47:17;;;;;;;4.28;2.28;;;11.70;92.30;;;;;;5045277;28;20033;-49
2024/02/22 05:49:42;;;;;;;2.28;1.42;;;11.70;92.20;;;;;;5044965;28;20049;-49
2024/02/22 05:52:08;;;;;;;2.03;1.58;;;11.70;92.10;;;;;;5044538;28;20415;-48
2024/02/22 05:54:33;;;;;;;2.83;1.75;;;11.70;92.10;;;;;;5044999;28;20044;-49
2024/02/22 05:57:00;;;;;;;3.08;1.50;;;11.70;92.30;;;;;;5044554;28;20041;-49
2024/02/22 05:59:26;;;;;;;5.13;1.70;;;11.70;92.40;;;;;;5046170;28;20032;-49
2024/02/22 06:01:51;;;;;;;3.00;1.65;;;11.70;92.40;;;;;;5044841;28;20116;-49
2024/02/22 06:04:18;;;;;;;5.13;1.67;;;11.70;92.40;;;;;;5046162;28;20018;-49
2024/02/22 06:06:43;;;;;;;7.47;1.80;;;11.70;92.50;;;;;;5044606;28;20029;-49
2024/02/22 06:09:09;;;;;;;18.33;2.88;;;11.70;92.60;;;;;;5045725;28;20064;-49
2024/02/22 06:11:35;;;;;;;11.68;2.17;;;11.70;92.60;;;;;;5044351;28;20032;-48
2024/02/22 06:14:00;;;;;;;21.48;3.67;;;11.70;92.60;;;;;;5044244;28;20037;-49
2024/02/22 06:16:26;;;;;;;23.50;4.07;;;11.70;92.70;;;;;;5044570;28;20052;-49
2024/02/22 06:18:52;;;;;;;34.22;4.35;;;11.70;93.40;;;;;;5028301;28;20539;-49
2024/02/22 06:21:18;;;;;;;47.53;5.53;;;11.70;93.30;;;;;;5028028;28;20089;-49
2024/02/22 06:23:44;;;;;;;64.35;7.20;;;11.70;93.30;;;;;;5028166;28;20017;-49
2024/02/22 06:26:09;;;;;;;56.67;6.78;;;11.70;93.40;;;;;;5027978;28;20032;-49
2024/02/22 06:28:35;;;;;;;78.22;8.85;;;11.70;93.50;;;;;;5044106;28;20034;-49
2024/02/22 06:31:01;;;;;;;72.57;9.32;;;11.70;93.60;;;;;;5044092;28;20037;-49
2024/02/22 06:33:26;;;;;;;117.65;13.30;;;11.70;93.60;;;;;;5028219;28;20068;-49
2024/02/22 06:35:52;;;;;;;109.30;11.98;;;11.70;93.80;;;;;;5045598;28;20472;-49
2024/02/22 06:38:17;;;;;;;154.18;16.17;;;11.70;94.10;;;;;;5045266;28;20365;-49
2024/02/22 06:40:48;;;;;;;152.70;15.05;;;11.70;94.20;;;;;;5027090;28;20022;-49
2024/02/22 06:43:14;;;;;;;115.68;14.77;;;11.70;94.30;;;;;;5028149;28;20563;-49
2024/02/22 06:45:40;;;;;;;90.55;12.52;;;11.60;94.50;;;;;;5044536;28;20026;-49
2024/02/22 06:48:07;;;;;;;135.93;16.13;;;11.70;94.60;;;;;;5043805;28;20037;-49
2024/02/22 06:50:33;;;;;;;131.82;15.20;;;11.60;94.70;;;;;;5028098;28;20041;-49
2024/02/22 06:53:00;;;;;;;106.60;12.35;;;11.70;94.90;;;;;;5044377;28;20108;-49
2024/02/22 06:55:26;;;;;;;107.38;13.80;;;11.60;94.90;;;;;;5045566;28;20037;-49
2024/02/22 06:57:52;;;;;;;109.18;14.50;;;11.60;94.90;;;;;;5027428;28;20030;-49
2024/02/22 07:00:17;;;;;;;100.20;13.85;;;11.70;95.20;;;;;;5027895;28;20021;-49
2024/02/22 07:02:43;;;;;;;77.05;11.82;;;11.60;95.30;;;;;;5028493;28;20032;-49
2024/02/22 07:05:09;;;;;;;93.55;11.90;;;11.60;95.30;;;;;;5012692;28;20117;-49
2024/02/22 07:07:35;;;;;;;75.35;12.73;;;11.60;95.30;;;;;;5029275;28;20056;-49
2024/02/22 07:10:00;;;;;;;102.78;14.35;;;11.60;95.50;;;;;;5046871;28;20029;-49
2024/02/22 07:12:26;;;;;;;103.88;15.13;;;12.00;95.60;;;;;;5047311;28;20045;-49
2024/02/22 07:14:51;;;;;;;83.03;11.82;;;11.60;95.50;;;;;;5048444;28;20022;-49
2024/02/22 07:17:17;;;;;;;75.07;12.25;;;11.60;95.60;;;;;;5048470;28;20435;-49
2024/02/22 07:19:44;;;;;;;79.22;11.20;;;11.60;95.60;;;;;;5048788;28;20029;-48
2024/02/22 07:22:09;;;;;;;93.82;12.00;;;11.60;95.60;;;;;;5047395;28;20030;-49
2024/02/22 07:24:35;;;;;;;78.43;12.55;;;11.60;95.70;;;;;;5047415;28;20029;-49
2024/02/22 07:27:01;;;;;;;77.32;11.48;;;11.60;95.80;;;;;;5031008;28;20034;-49
2024/02/22 07:29:27;;;;;;;86.65;11.68;;;11.60;96.00;;;;;;5048722;28;20532;-49
2024/02/22 07:31:53;;;;;;;74.07;10.73;;;11.60;96.00;;;;;;5047296;28;20037;-49
2024/02/22 07:34:19;;;;;;;66.68;11.20;;;11.60;96.10;;;;;;5046915;28;20048;-49
2024/02/22 07:36:45;;;;;;;79.47;12.07;;;11.60;96.30;;;;;;5010380;28;20041;-49
2024/02/22 07:39:10;;;;;;;81.00;11.57;;;11.60;96.30;;;;;;5027292;28;20499;-49
2024/02/22 07:41:36;;;;;;;68.47;9.45;;;11.60;96.40;;;;;;5028656;28;20034;-49
2024/02/22 07:44:03;;;;;;;74.50;10.35;;;11.60;96.40;;;;;;5029897;28;20083;-49
2024/02/22 07:46:29;;;;;;;64.78;9.07;;;11.60;96.40;;;;;;5046460;28;20081;-49
2024/02/22 07:48:55;;;;;;;52.20;9.82;;;11.60;96.50;;;;;;5047257;28;20025;-49
2024/02/22 07:51:22;;;;;;;57.13;9.63;;;11.50;96.50;;;;;;5047290;28;20085;-49
2024/02/22 07:53:48;;;;;;;44.95;8.40;;;11.60;96.60;;;;;;5046585;28;20029;-49
2024/02/22 07:56:13;;;;;;;49.72;8.45;;;11.60;96.60;;;;;;5022795;28;20029;-49
2024/02/22 07:58:47;;;;;;;40.42;7.53;;;11.50;96.50;;;;;;5029009;28;20026;-49
2024/02/22 08:01:13;;;;;;;48.28;7.20;;;11.60;96.50;;;;;;5027208;28;20030;-49
2024/02/22 08:03:40;;;;;;;42.45;7.55;;;11.60;96.60;;;;;;5040331;28;20109;-49
2024/02/22 08:06:06;;;;;;;42.08;7.57;;;11.60;96.60;;;;;;5045792;28;20040;-49
2024/02/22 08:08:31;;;;;;;38.95;5.43;;;11.60;96.70;;;;;;5029461;28;20400;-49
2024/02/22 08:10:57;;;;;;;33.65;6.18;;;11.60;96.70;;;;;;5047567;28;20029;-49
2024/02/22 08:13:23;;;;;;;35.03;6.13;;;11.60;96.80;;;;;;5045665;28;20097;-49
2024/02/22 08:15:49;;;;;;;47.65;7.13;;;11.60;96.80;;;;;;5047491;28;20031;-49
2024/02/22 08:18:14;;;;;;;48.70;7.43;;;11.60;96.80;;;;;;5046027;28;20041;-49
2024/02/22 08:20:40;;;;;;;61.17;8.02;;;11.60;96.80;;;;;;5047441;28;20025;-49
2024/02/22 08:23:08;;;;;;;49.25;8.05;;;11.60;96.80;;;;;;5045270;28;20092;-49
2024/02/22 08:25:37;;;;;;;47.67;7.18;;;11.60;96.90;;;;;;5045907;28;20022;-49
2024/02/22 08:28:04;;;;;;;30.90;5.97;;;11.70;97.00;;;;;;5043176;28;20034;-49
2024/02/22 08:30:29;;;;;;;40.00;6.45;;;11.60;97.00;;;;;;5045255;28;20029;-49
2024/02/22 08:32:55;;;;;;;43.33;6.60;;;11.60;97.10;;;;;;5045420;28;20043;-49
2024/02/22 08:35:21;;;;;;;59.35;7.38;;;11.70;97.30;;;;;;5044672;28;20032;-49
2024/02/22 08:37:46;;;;;;;51.17;6.38;;;11.60;97.30;;;;;;5043575;28;20057;-49
2024/02/22 08:40:12;;;;;;;39.00;6.00;;;11.60;97.30;;;;;;5043667;28;20025;-49
2024/02/22 08:42:38;;;;;;;40.90;6.28;;;11.60;97.60;;;;;;5041152;28;20152;-49
2024/02/22 08:45:04;;;;;;;48.78;6.63;;;11.70;97.70;;;;;;5043643;28;20025;-49
2024/02/22 08:47:31;;;;;;;40.28;5.78;;;11.70;97.80;;;;;;5042997;28;20025;-49
2024/02/22 08:49:58;;;;;;;38.03;6.63;;;11.70;97.70;;;;;;5042887;28;20034;-49
2024/02/22 08:52:24;;;;;;;45.22;6.55;;;11.70;97.50;;;;;;5038612;28;20060;-49
2024/02/22 08:54:50;;;;;;;36.20;6.07;;;11.70;97.40;;;;;;5046651;28;20037;-49
2024/02/22 08:57:16;;;;;;;38.80;6.53;;;11.70;97.40;;;;;;5040665;28;20072;-49
2024/02/22 08:59:42;;;;;;;34.67;4.85;;;11.70;97.60;;;;;;5041867;28;20084;-49
2024/02/22 09:02:07;;;;;;;40.38;6.47;;;11.70;97.50;;;;;;5043431;28;20153;-49
2024/02/22 09:04:33;;;;;;;65.47;6.47;;;11.70;97.60;;;;;;5046190;28;20029;-49
2024/02/22 09:07:00;;;;;;;40.83;6.30;;;11.80;97.70;;;;;;5046128;28;20415;-49
2024/02/22 09:09:25;;;;;;;45.10;5.55;;;11.80;97.60;;;;;;5026627;28;20026;-49
2024/02/22 09:11:51;;;;;;;51.20;6.60;;;11.80;97.60;;;;;;5045530;28;20055;-49
2024/02/22 09:14:16;;;;;;;44.20;5.57;;;11.80;97.60;;;;;;5045382;28;20059;-49
2024/02/22 09:16:44;;;;;;;55.72;6.32;;;11.80;97.60;;;;;;5045517;28;20052;-49
2024/02/22 09:19:09;;;;;;;49.72;6.75;;;11.80;97.60;;;;;;5044688;28;20469;-49
2024/02/22 09:21:35;;;;;;;61.25;6.53;;;11.80;97.70;;;;;;5040278;28;20017;-49
2024/02/22 09:24:01;;;;;;;45.33;6.22;;;11.80;98.10;;;;;;5043764;28;20089;-49
2024/02/22 09:26:26;;;;;;;60.20;6.55;;;11.80;98.20;;;;;;5040865;28;20052;-49
2024/02/22 09:28:52;;;;;;;42.55;5.55;;;11.80;98.30;;;;;;5042171;28;20499;-49
2024/02/22 09:31:17;;;;;;;40.00;6.20;;;11.80;98.10;;;;;;5044703;28;20032;-48
2024/02/22 09:33:43;;;;;;;45.45;6.30;;;11.80;98.10;;;;;;5044488;28;20089;-49
2024/02/22 09:36:09;;;;;;;34.70;5.72;;;11.90;98.30;;;;;;5046054;28;20025;-49
2024/02/22 09:38:35;;;;;;;30.95;4.93;;;11.90;98.20;;;;;;5011043;28;20113;-49
2024/02/22 09:41:01;;;;;;;58.05;5.55;;;11.90;98.10;;;;;;5028190;28;20032;-49
2024/02/22 09:43:27;;;;;;;50.65;6.20;;;11.90;98.10;;;;;;5044782;28;20049;-49
2024/02/22 09:45:52;;;;;;;35.85;4.80;;;11.90;98.30;;;;;;5027932;28;20093;-49
2024/02/22 09:48:18;;;;;;;73.20;7.40;;;11.80;98.20;;;;;;5044730;28;20120;-49
2024/02/22 09:50:43;;;;;;;66.20;9.13;;;11.90;98.50;;;;;;5028055;28;20037;-49
2024/02/22 09:53:10;;;;;;;48.47;7.97;;;11.90;98.60;;;;;;5046034;28;20038;-49
2024/02/22 09:55:36;;;;;;;49.55;6.88;;;11.90;98.80;;;;;;5028361;28;20061;-49
2024/02/22 09:58:01;;;;;;;48.22;7.70;;;12.00;99.00;;;;;;5023451;28;20037;-49
2024/02/22 10:00:27;;;;;;;48.38;7.05;;;11.90;99.00;;;;;;5035655;28;20025;-49
2024/02/22 10:02:53;;;;;;;47.83;7.10;;;11.90;99.00;;;;;;5032972;28;20121;-49
2024/02/22 10:05:19;;;;;;;45.85;7.75;;;12.00;99.20;;;;;;5027571;28;20032;-49
2024/02/22 10:07:45;;;;;;;53.50;7.70;;;12.00;99.30;;;;;;5045095;28;20104;-49
2024/02/22 10:10:11;;;;;;;80.53;10.68;;;12.00;99.60;;;;;;5041532;28;20021;-49
2024/02/22 10:12:43;;;;;;;98.30;10.15;;;12.00;99.30;;;;;;5042634;28;20494;-49
2024/02/22 10:15:17;;;;;;;72.72;9.18;;;12.00;99.30;;;;;;5028302;28;20056;-48
2024/02/22 10:17:43;;;;;;;95.97;10.57;;;12.00;99.30;;;;;;5023848;28;20061;-49
2024/02/22 10:20:09;;;;;;;136.75;15.05;;;12.00;99.40;;;;;;5043166;28;20066;-49
2024/02/22 10:22:36;;;;;;;95.07;11.48;;;12.00;99.60;;;;;;5041896;28;20033;-49
2024/02/22 10:25:14;;;;;;;67.25;9.55;;;12.00;99.60;;;;;;5044086;28;20040;-49
2024/02/22 10:27:46;;;;;;;90.70;12.13;;;12.00;99.50;;;;;;5024368;28;20034;-49
2024/02/22 10:30:12;;;;;;;140.55;15.35;;;12.10;99.40;;;;;;5043332;28;20029;-49
2024/02/22 10:32:39;;;;;;;127.93;12.88;;;12.10;99.70;;;;;;5026803;28;20112;-49
2024/02/22 10:35:05;;;;;;;115.60;12.50;;;12.10;99.70;;;;;;5045245;28;20049;-49
2024/02/22 10:37:31;;;;;;;151.90;16.42;;;12.10;99.70;;;;;;5045833;28;20049;-49
2024/02/22 10:39:56;;;;;;;186.57;22.17;;;12.10;99.80;;;;;;5047320;28;20029;-48
2024/02/22 10:42:22;;;;;;;308.98;32.30;;;12.10;99.90;;;;;;5047897;28;20468;-49
2024/02/22 10:44:47;;;;;;;197.75;21.40;;;12.10;99.90;;;;;;5031387;28;20021;-49
2024/02/22 10:47:13;;;;;;;298.90;28.90;;;12.10;99.90;;;;;;5048486;28;20045;-49
2024/02/22 10:49:39;;;;;;;191.25;23.10;;;12.20;99.90;;;;;;5044255;28;20036;-49
2024/02/22 10:52:08;;;;;;;223.18;24.00;;;12.20;99.90;;;;;;5046312;28;20029;-49
2024/02/22 10:54:34;;;;;;;187.55;23.35;;;12.20;99.90;;;;;;5023107;28;20034;-49
2024/02/22 10:57:01;;;;;;;203.27;26.08;;;12.20;99.90;;;;;;5042372;28;20036;-49
2024/02/22 10:59:28;;;;;;;199.63;22.45;;;12.20;99.90;;;;;;5046985;28;20036;-49
2024/02/22 11:01:53;;;;;;;183.07;20.63;;;12.20;99.90;;;;;;5029197;28;20049;-49
2024/02/22 11:04:19;;;;;;;166.73;18.88;;;12.20;99.90;;;;;;5045139;28;20028;-49
2024/02/22 11:06:45;;;;;;;198.10;20.80;;;12.20;99.90;;;;;;5027323;28;20042;-49
2024/02/22 11:09:21;;;;;;;169.43;19.35;;;12.20;99.90;;;;;;5024764;28;20412;-49
2024/02/22 11:11:48;;;;;;;148.85;15.30;;;12.20;99.90;;;;;;5026077;28;20030;-50
2024/02/22 11:14:24;;;;;;;105.15;13.48;;;12.20;99.90;;;;;;5041636;28;20060;-56
2024/02/22 11:16:50;;;;;;;103.75;13.18;;;12.20;99.90;;;;;;5045610;28;20038;-49
2024/02/22 11:19:22;;;;;;;136.02;14.18;;;12.20;99.90;;;;;;5043758;28;20499;-50
2024/02/22 11:21:51;;;;;;;120.05;15.00;;;12.20;99.90;;;;;;5043600;28;20104;-49
2024/02/22 11:24:22;;;;;;;134.15;15.45;;;12.20;99.90;;;;;;5045104;28;20442;-49
2024/02/22 11:26:48;;;;;;;124.07;14.13;;;12.20;99.90;;;;;;5058294;28;20079;-49
2024/02/22 11:29:14;;;;;;;116.30;12.82;;;12.20;99.90;;;;;;5032811;28;20038;-49
2024/02/22 11:31:39;;;;;;;124.97;14.00;;;12.20;99.90;;;;;;5058583;28;20038;-49
2024/02/22 11:34:05;;;;;;;91.78;12.30;;;12.30;99.90;;;;;;5042930;28;20025;-49
2024/02/22 11:36:31;;;;;;;75.25;8.77;;;12.30;99.90;;;;;;5043856;28;20400;-49
2024/02/22 11:39:00;;;;;;;87.68;9.90;;;12.30;99.90;;;;;;5043843;28;20096;-49
2024/02/22 11:41:30;;;;;;;83.80;11.18;;;12.30;99.90;;;;;;5036051;28;20041;-50
2024/02/22 11:44:02;;;;;;;98.32;10.77;;;12.30;99.90;;;;;;5044773;28;20025;-49
2024/02/22 11:46:28;;;;;;;98.18;12.77;;;12.30;99.90;;;;;;5045972;28;20040;-49
2024/02/22 11:48:53;;;;;;;95.43;12.57;;;12.30;99.90;;;;;;5046928;28;20030;-49
2024/02/22 11:51:23;;;;;;;94.70;12.85;;;12.30;99.90;;;;;;5028944;28;20384;-49
2024/02/22 11:53:57;;;;;;;89.53;12.27;;;12.30;99.90;;;;;;5039673;28;20049;-49
2024/02/22 11:56:25;;;;;;;77.72;9.90;;;12.40;99.90;;;;;;5046055;28;20079;-49
2024/02/22 11:58:51;;;;;;;95.22;11.73;;;12.40;99.90;;;;;;5045824;28;20029;-49
2024/02/22 12:01:18;;;;;;;81.97;11.40;;;12.40;99.90;;;;;;5046034;28;20033;-49
2024/02/22 12:03:44;;;;;;;123.07;10.68;;;12.40;99.90;;;;;;5023875;28;20022;-49
2024/02/22 12:06:11;;;;;;;80.40;8.95;;;12.40;99.90;;;;;;5044155;28;20056;-49
2024/02/22 12:08:37;;;;;;;78.05;8.50;;;12.40;99.90;;;;;;5046154;28;20057;-49
2024/02/22 12:11:04;;;;;;;61.95;7.95;;;12.40;99.90;;;;;;5046148;28;20033;-49
2024/02/22 12:13:30;;;;;;;52.92;7.28;;;12.50;99.90;;;;;;5028180;28;20112;-49
2024/02/22 12:16:06;;;;;;;105.72;11.23;;;12.40;99.90;;;;;;5042452;28;20064;-49
2024/02/22 12:18:32;;;;;;;79.85;8.77;;;12.40;99.90;;;;;;5045108;28;20034;-49
2024/02/22 12:20:58;;;;;;;67.40;9.50;;;12.50;99.90;;;;;;5028477;28;20049;-49
2024/02/22 12:23:24;;;;;;;72.13;8.95;;;12.40;99.90;;;;;;5045254;28;20507;-49
2024/02/22 12:25:51;;;;;;;65.45;9.27;;;12.50;99.90;;;;;;5028854;28;20086;-49
2024/02/22 12:28:17;;;;;;;86.78;10.38;;;12.50;99.90;;;;;;5028823;28;20037;-49
2024/02/22 12:30:43;;;;;;;90.85;9.70;;;12.50;99.90;;;;;;5026758;28;20041;-49
2024/02/22 12:33:22;;;;;;;95.18;11.50;;;12.50;99.90;;;;;;5042413;28;20558;-49